Time;durP1;ratioP1;P1;durP2;ratioP2;P2;SDS_P1;SDS_P2;PMS_P1;PMS_P2;Temp;Humidity;BMP_temperature;BMP_pressure;BME280_temperature;BME280_humidity;BME280_pressure;Samples;Min_cycle;Max_cycle;Signal;HPM_P1;HPM_P2
2022/07/22 00:00:28;;;;;;;2.50;0.80;;;;;;;16.01;100.00;99365.31;1685639;85;20989;-57
2022/07/22 00:02:56;;;;;;;1.77;0.70;;;;;;;15.99;100.00;99364.77;1684668;83;21041;-59
2022/07/22 00:05:23;;;;;;;1.63;0.90;;;;;;;15.92;100.00;99360.72;1685086;85;21674;-56
2022/07/22 00:07:51;;;;;;;2.40;0.97;;;;;;;15.92;100.00;99362.03;1685493;83;21562;-56
2022/07/22 00:10:19;;;;;;;1.67;0.70;;;;;;;15.91;100.00;99357.79;1685613;85;22295;-58
2022/07/22 00:12:46;;;;;;;1.50;0.70;;;;;;;15.89;100.00;99359.88;1685175;85;21609;-58
2022/07/22 00:15:14;;;;;;;2.50;0.67;;;;;;;15.87;100.00;99354.84;1684854;83;21139;-56
2022/07/22 00:17:43;;;;;;;1.17;0.70;;;;;;;15.81;100.00;99360.55;1685507;85;21024;-57
2022/07/22 00:20:11;;;;;;;2.13;0.73;;;;;;;15.86;100.00;99362.45;1685361;85;21029;-56
2022/07/22 00:22:39;;;;;;;1.53;0.80;;;;;;;15.78;100.00;99363.65;1685528;85;21295;-57
2022/07/22 00:25:08;;;;;;;1.57;0.80;;;;;;;15.79;100.00;99364.44;1684248;85;21073;-64
2022/07/22 00:27:36;;;;;;;3.80;0.70;;;;;;;15.76;100.00;99361.00;1685199;85;21871;-56
2022/07/22 00:30:05;;;;;;;3.03;0.60;;;;;;;15.77;100.00;99363.90;1685119;85;21584;-57
2022/07/22 00:32:33;;;;;;;6.13;0.77;;;;;;;15.75;100.00;99363.33;1685275;85;21094;-63
2022/07/22 00:35:00;;;;;;;2.57;0.83;;;;;;;15.74;100.00;99362.53;1685377;85;21431;-62
2022/07/22 00:37:28;;;;;;;1.30;0.60;;;;;;;15.74;100.00;99365.16;1685496;85;22105;-55
2022/07/22 00:39:55;;;;;;;1.77;0.80;;;;;;;15.70;100.00;99379.02;1685511;85;21037;-56
2022/07/22 00:42:23;;;;;;;1.90;0.63;;;;;;;15.67;100.00;99376.86;1686071;85;21079;-57
2022/07/22 00:44:50;;;;;;;1.53;0.70;;;;;;;15.64;100.00;99373.36;1685163;85;20957;-65
2022/07/22 00:47:18;;;;;;;1.20;0.63;;;;;;;15.62;100.00;99381.48;1685194;83;21837;-57
2022/07/22 00:49:48;;;;;;;1.80;0.80;;;;;;;15.61;100.00;99375.97;1685278;85;21091;-57
2022/07/22 00:52:16;;;;;;;2.13;0.80;;;;;;;15.61;100.00;99376.45;1685222;85;21494;-60
2022/07/22 00:54:44;;;;;;;2.00;0.80;;;;;;;15.63;100.00;99387.53;1684793;85;21581;-59
2022/07/22 00:57:11;;;;;;;4.27;1.17;;;;;;;15.58;100.00;99382.48;1684819;85;21039;-64
2022/07/22 00:59:38;;;;;;;1.83;1.00;;;;;;;15.53;100.00;99385.03;1685110;85;21856;-56
2022/07/22 01:02:05;;;;;;;1.87;0.93;;;;;;;15.50;100.00;99386.02;1685014;85;21479;-57
2022/07/22 01:04:33;;;;;;;2.07;1.07;;;;;;;15.52;100.00;99382.09;1680149;85;21534;-58
2022/07/22 01:07:01;;;;;;;2.83;0.90;;;;;;;15.49;100.00;99381.28;1675069;85;21045;-56
2022/07/22 01:09:28;;;;;;;2.60;1.20;;;;;;;15.49;100.00;99381.77;1674458;85;21120;-57
2022/07/22 01:11:57;;;;;;;3.03;1.13;;;;;;;15.45;100.00;99381.97;1674784;85;21505;-56
2022/07/22 01:14:25;;;;;;;1.83;0.90;;;;;;;15.51;100.00;99388.91;1675299;84;21088;-56
2022/07/22 01:16:53;;;;;;;4.03;1.10;;;;;;;15.46;100.00;99384.37;1674680;85;21606;-57
2022/07/22 01:19:21;;;;;;;2.50;1.00;;;;;;;15.47;100.00;99387.80;1674543;84;21156;-57
2022/07/22 01:21:51;;;;;;;3.27;0.93;;;;;;;15.50;100.00;99388.64;1675109;85;21320;-58
2022/07/22 01:24:18;;;;;;;2.37;1.20;;;;;;;15.53;100.00;99377.15;1675059;85;21107;-55
2022/07/22 01:26:47;;;;;;;1.80;1.00;;;;;;;15.54;100.00;99377.94;1673941;85;21032;-57
2022/07/22 01:29:14;;;;;;;2.23;0.93;;;;;;;15.62;100.00;99372.81;1674892;85;21104;-58
2022/07/22 01:31:41;;;;;;;3.40;1.53;;;;;;;15.61;100.00;99373.34;1674745;85;21048;-56
2022/07/22 01:34:09;;;;;;;2.03;1.07;;;;;;;15.57;100.00;99369.07;1675140;85;21104;-57
2022/07/22 01:36:38;;;;;;;3.60;1.40;;;;;;;15.61;100.00;99369.40;1674600;85;21111;-59
2022/07/22 01:39:05;;;;;;;3.20;1.43;;;;;;;15.66;100.00;99368.19;1674992;85;21167;-57
2022/07/22 01:41:33;;;;;;;2.77;1.27;;;;;;;15.70;100.00;99363.25;1674882;85;21039;-58
2022/07/22 01:44:01;;;;;;;2.37;1.30;;;;;;;15.68;100.00;99363.50;1674746;85;21987;-56
2022/07/22 01:46:29;;;;;;;2.17;1.43;;;;;;;15.73;100.00;99366.20;1674656;85;21649;-56
2022/07/22 01:48:57;;;;;;;3.07;1.70;;;;;;;15.74;100.00;99366.48;1674731;85;21159;-58
2022/07/22 01:51:26;;;;;;;3.17;1.90;;;;;;;15.78;100.00;99362.34;1674569;85;21457;-64
2022/07/22 01:53:53;;;;;;;3.30;1.30;;;;;;;15.82;100.00;99367.91;1675232;84;21017;-56
2022/07/22 01:56:21;;;;;;;2.70;1.23;;;;;;;15.86;100.00;99369.02;1675081;84;21065;-57
2022/07/22 01:58:49;;;;;;;3.13;1.27;;;;;;;15.90;100.00;99365.41;1674821;84;21040;-60
2022/07/22 02:01:19;;;;;;;2.97;1.47;;;;;;;15.95;100.00;99366.81;1674882;85;21999;-56
2022/07/22 02:03:47;;;;;;;2.40;1.60;;;;;;;15.90;100.00;99370.66;1674605;85;21476;-57
2022/07/22 02:06:15;;;;;;;3.70;2.07;;;;;;;16.04;100.00;99377.19;1675024;84;21171;-57
2022/07/22 02:08:44;;;;;;;2.87;1.27;;;;;;;16.02;100.00;99377.44;1674643;84;20970;-64
2022/07/22 02:11:14;;;;;;;3.00;1.30;;;;;;;16.14;100.00;99380.47;1675127;84;21823;-56
2022/07/22 02:13:45;;;;;;;2.07;1.10;;;;;;;16.22;100.00;99380.88;1673929;84;21339;-58
2022/07/22 02:16:13;;;;;;;2.33;1.30;;;;;;;16.29;100.00;99380.20;1674572;85;21498;-57
2022/07/22 02:18:41;;;;;;;4.83;1.97;;;;;;;16.25;100.00;99384.35;1674644;84;21089;-58
2022/07/22 02:21:09;;;;;;;2.60;1.50;;;;;;;16.25;100.00;99376.46;1674741;84;21583;-57
2022/07/22 02:23:38;;;;;;;2.53;1.27;;;;;;;16.35;100.00;99377.63;1675257;85;21033;-64
2022/07/22 02:26:06;;;;;;;5.50;1.60;;;;;;;16.22;100.00;99384.83;1674587;85;21263;-60
2022/07/22 02:28:34;;;;;;;3.97;1.63;;;;;;;16.08;100.00;99379.61;1674726;84;21061;-57
2022/07/22 02:31:01;;;;;;;2.80;1.53;;;;;;;16.05;100.00;99378.25;1674801;85;21044;-58
2022/07/22 02:33:33;;;;;;;6.13;3.00;;;;;;;16.03;100.00;99383.49;1680318;85;21171;-56
2022/07/22 02:35:58;;;;;;;3.40;1.50;;;;;;;16.03;100.00;99379.03;1679126;85;21014;-57
2022/07/22 02:38:26;;;;;;;3.77;1.60;;;;;;;16.19;100.00;99383.20;1675144;85;21454;-56
2022/07/22 02:40:53;;;;;;;4.07;1.83;;;;;;;16.23;100.00;99378.52;1674298;85;21065;-57
2022/07/22 02:43:21;;;;;;;4.17;2.20;;;;;;;16.37;100.00;99371.62;1680244;83;21377;-56
2022/07/22 02:45:49;;;;;;;3.50;1.73;;;;;;;16.44;100.00;99370.91;1674866;84;21160;-56
2022/07/22 02:48:17;;;;;;;4.10;2.33;;;;;;;16.51;100.00;99368.89;1674148;85;20986;-59
2022/07/22 02:50:48;;;;;;;5.37;2.83;;;;;;;16.66;100.00;99373.03;1674639;85;22065;-58
2022/07/22 02:53:17;;;;;;;3.20;2.20;;;;;;;16.67;100.00;99370.70;1675208;85;21088;-57
2022/07/22 02:55:45;;;;;;;3.97;2.43;;;;;;;16.74;100.00;99370.53;1674901;85;21033;-57
2022/07/22 02:58:12;;;;;;;3.70;2.30;;;;;;;16.92;100.00;99370.75;1674864;85;21471;-56
2022/07/22 03:00:42;;;;;;;3.30;2.13;;;;;;;17.02;100.00;99372.98;1674427;84;21085;-57
2022/07/22 03:03:09;;;;;;;4.80;2.63;;;;;;;17.07;100.00;99374.86;1674954;85;22423;-56
2022/07/22 03:05:37;;;;;;;3.70;2.40;;;;;;;17.04;100.00;99372.72;1680801;85;21131;-56
2022/07/22 03:08:13;;;;;;;6.57;2.50;;;;;;;17.16;100.00;99374.72;1675302;85;21478;-57
2022/07/22 03:10:40;;;;;;;4.80;2.33;;;;;;;17.17;100.00;99374.98;1683886;85;21530;-56
2022/07/22 03:13:08;;;;;;;4.00;2.17;;;;;;;17.24;100.00;99386.13;1685207;85;21046;-56
2022/07/22 03:15:36;;;;;;;3.90;2.30;;;;;;;17.29;100.00;99388.53;1684598;83;21229;-61
2022/07/22 03:18:04;;;;;;;5.37;2.07;;;;;;;17.36;100.00;99390.45;1685305;83;21965;-57
2022/07/22 03:20:33;;;;;;;4.00;1.77;;;;;;;17.44;100.00;99391.31;1684354;85;21028;-57
2022/07/22 03:23:00;;;;;;;3.50;1.70;;;;;;;17.51;100.00;99386.64;1684826;85;21076;-55
2022/07/22 03:25:30;;;;;;;3.13;1.53;;;;;;;17.55;100.00;99391.69;1684948;85;20930;-63
2022/07/22 03:27:58;;;;;;;4.43;1.80;;;;;;;17.58;100.00;99389.05;1684288;85;21226;-56
2022/07/22 03:30:25;;;;;;;2.87;1.90;;;;;;;17.62;100.00;99385.69;1684494;85;21115;-60
2022/07/22 03:32:53;;;;;;;3.33;1.70;;;;;;;17.68;100.00;99381.24;1685402;85;21556;-56
2022/07/22 03:35:21;;;;;;;2.93;1.50;;;;;;;17.73;100.00;99387.37;1685083;85;21045;-62
2022/07/22 03:37:49;;;;;;;2.70;1.50;;;;;;;17.79;100.00;99384.80;1684990;85;21040;-57
2022/07/22 03:40:17;;;;;;;3.00;2.00;;;;;;;17.87;100.00;99388.28;1684905;85;21287;-64
2022/07/22 03:42:45;;;;;;;4.30;2.60;;;;;;;17.91;100.00;99389.36;1684801;85;22139;-55
2022/07/22 03:45:12;;;;;;;5.10;3.03;;;;;;;17.91;100.00;99387.52;1685299;85;21040;-55
2022/07/22 03:47:41;;;;;;;6.23;3.37;;;;;;;17.93;100.00;99391.24;1684529;85;21481;-58
2022/07/22 03:50:09;;;;;;;5.63;3.63;;;;;;;18.02;100.00;99392.35;1661651;85;21286;-57
2022/07/22 03:52:37;;;;;;;5.43;3.70;;;;;;;18.15;100.00;99388.50;1684840;85;21681;-55
2022/07/22 03:55:06;;;;;;;5.17;3.60;;;;;;;18.18;100.00;99392.75;1684873;85;21041;-55
2022/07/22 03:57:35;;;;;;;6.30;4.00;;;;;;;18.24;100.00;99390.39;1684898;85;21525;-55
2022/07/22 04:00:06;;;;;;;6.03;3.30;;;;;;;18.31;100.00;99388.07;1684361;85;21052;-58
2022/07/22 04:02:36;;;;;;;5.20;3.43;;;;;;;18.42;100.00;99395.00;1684663;85;21721;-55
2022/07/22 04:05:04;;;;;;;5.27;4.13;;;;;;;18.43;100.00;99385.49;1684461;83;21148;-56
2022/07/22 04:07:31;;;;;;;5.00;3.63;;;;;;;18.48;100.00;99390.78;1674468;84;21085;-56
2022/07/22 04:10:04;;;;;;;8.03;3.87;;;;;;;18.51;100.00;99386.85;1657669;85;21108;-55
2022/07/22 04:12:28;;;;;;;5.43;3.80;;;;;;;18.69;100.00;99394.87;1674358;84;21074;-56
2022/07/22 04:14:59;;;;;;;4.80;3.33;;;;;;;18.77;100.00;99400.21;1674952;84;21561;-55
2022/07/22 04:17:26;;;;;;;4.90;3.50;;;;;;;18.83;100.00;99399.19;1674804;85;21732;-58
2022/07/22 04:19:53;;;;;;;7.30;4.10;;;;;;;18.87;100.00;99401.58;1675318;85;21852;-57
2022/07/22 04:22:23;;;;;;;5.60;3.73;;;;;;;18.89;100.00;99396.82;1674471;85;21139;-55
2022/07/22 04:24:50;;;;;;;3.80;2.80;;;;;;;18.90;100.00;99395.77;1675479;85;21587;-55
2022/07/22 04:27:17;;;;;;;4.63;3.33;;;;;;;19.04;100.00;99395.55;1674630;84;20966;-56
2022/07/22 04:29:45;;;;;;;5.97;3.33;;;;;;;19.09;100.00;99394.27;1675100;84;21324;-56
2022/07/22 04:32:12;;;;;;;4.17;3.23;;;;;;;19.04;100.00;99394.23;1674827;85;21006;-61
2022/07/22 04:34:41;;;;;;;4.67;3.43;;;;;;;19.01;100.00;99392.63;1675217;85;21953;-59
2022/07/22 04:37:09;;;;;;;5.03;3.87;;;;;;;19.27;100.00;99397.46;1674936;85;21452;-63
2022/07/22 04:39:36;;;;;;;4.90;3.37;;;;;;;19.53;100.00;99393.81;1680973;83;21568;-57
2022/07/22 04:42:04;;;;;;;5.70;3.80;;;;;;;19.76;100.00;99395.17;1674905;85;21272;-58
2022/07/22 04:44:33;;;;;;;6.03;3.60;;;;;;;19.95;100.00;99390.67;1675183;85;21052;-56
2022/07/22 04:47:00;;;;;;;6.30;3.40;;;;;;;20.14;100.00;99389.86;1675202;85;21028;-60
2022/07/22 04:49:28;;;;;;;4.70;3.30;;;;;;;20.17;100.00;99393.30;1675054;85;21018;-56
2022/07/22 04:51:57;;;;;;;5.37;3.57;;;;;;;20.31;100.00;99388.79;1675091;85;22027;-57
2022/07/22 04:54:25;;;;;;;5.13;3.60;;;;;;;20.35;100.00;99387.19;1674851;85;21799;-56
2022/07/22 04:56:54;;;;;;;4.60;3.67;;;;;;;20.36;100.00;99390.87;1674506;85;20996;-56
2022/07/22 04:59:21;;;;;;;4.70;3.23;;;;;;;20.49;100.00;99400.13;1674116;85;22164;-57
2022/07/22 05:01:48;;;;;;;5.23;3.33;;;;;;;20.68;100.00;99394.25;1675205;85;21626;-55
2022/07/22 05:04:16;;;;;;;5.47;3.43;;;;;;;20.84;100.00;99387.86;1674713;85;21042;-57
2022/07/22 05:06:45;;;;;;;6.37;3.60;;;;;;;21.02;100.00;99391.72;1681706;85;21225;-56
2022/07/22 05:09:12;;;;;;;4.50;3.17;;;;;;;21.21;100.00;99388.70;1685267;85;21127;-64
2022/07/22 05:11:40;;;;;;;5.70;3.40;;;;;;;21.28;100.00;99395.03;1684655;85;21071;-55
2022/07/22 05:14:07;;;;;;;5.47;3.03;;;;;;;21.31;100.00;99389.97;1684556;85;21004;-56
2022/07/22 05:16:39;;;;;;;5.63;3.63;;;;;;;21.32;100.00;99394.20;1685128;85;21382;-55
2022/07/22 05:19:07;;;;;;;4.03;2.92;;;;;;;21.38;100.00;99397.66;1685350;85;21649;-60
2022/07/22 05:21:35;;;;;;;3.30;2.63;;;;;;;21.47;100.00;99393.34;1684317;85;21052;-55
2022/07/22 05:24:03;;;;;;;3.90;3.10;;;;;;;21.61;100.00;99394.30;1684433;85;21407;-57
2022/07/22 05:26:33;;;;;;;5.30;3.57;;;;;;;21.84;100.00;99397.31;1685149;85;21111;-55
2022/07/22 05:29:01;;;;;;;4.90;3.13;;;;;;;22.18;100.00;99391.20;1685008;85;21079;-55
2022/07/22 05:31:29;;;;;;;5.40;3.90;;;;;;;22.66;100.00;99393.89;1684300;83;21149;-56
2022/07/22 05:33:57;;;;;;;5.67;3.67;;;;;;;22.89;100.00;99395.72;1684618;85;21032;-62
2022/07/22 05:36:26;;;;;;;5.00;3.90;;;;;;;22.91;100.00;99393.58;1684768;85;21523;-55
2022/07/22 05:38:55;;;;;;;5.47;4.10;;;;;;;22.74;100.00;99389.27;1685245;83;21760;-55
2022/07/22 05:41:23;;;;;;;4.87;3.97;;;;;;;22.42;100.00;99382.70;1684771;85;21061;-55
2022/07/22 05:43:51;;;;;;;6.10;4.37;;;;;;;22.19;100.00;99393.56;1684764;85;21886;-55
2022/07/22 05:46:19;;;;;;;5.03;3.80;;;;;;;22.17;100.00;99394.94;1684572;83;21048;-56
2022/07/22 05:48:48;;;;;;;5.80;4.37;;;;;;;22.27;100.00;99393.49;1685131;85;21576;-55
2022/07/22 05:51:17;;;;;;;5.27;4.40;;;;;;;22.42;100.00;99386.69;1684240;83;20965;-56
2022/07/22 05:53:44;;;;;;;5.47;4.17;;;;;;;22.51;100.00;99385.02;1684675;85;21900;-56
2022/07/22 05:56:13;;;;;;;5.73;4.80;;;;;;;22.85;100.00;99388.07;1685456;85;21219;-60
2022/07/22 05:58:40;;;;;;;6.03;4.37;;;;;;;23.20;100.00;99387.37;1684522;85;21107;-55
2022/07/22 06:01:09;;;;;;;8.80;4.70;;;;;;;23.52;100.00;99377.30;1684743;83;21123;-55
2022/07/22 06:03:36;;;;;;;6.03;4.33;;;;;;;23.79;100.00;99376.11;1684846;83;22575;-55
2022/07/22 06:06:08;;;;;;;5.40;4.53;;;;;;;23.98;100.00;99376.58;1685002;85;21515;-56
2022/07/22 06:08:34;;;;;;;5.83;4.27;;;;;;;24.43;100.00;99372.85;1684571;85;22262;-56
2022/07/22 06:11:04;;;;;;;5.05;4.12;;;;;;;25.27;100.00;99374.31;1684687;83;22336;-59
2022/07/22 06:13:34;;;;;;;5.03;4.00;;;;;;;26.46;100.00;99376.47;1685499;84;21425;-55
2022/07/22 06:16:05;;;;;;;6.55;4.37;;;;;;;27.74;100.00;99370.73;1684952;85;21120;-58
2022/07/22 06:18:32;;;;;;;5.03;3.47;;;;;;;28.87;100.00;99369.71;1685034;85;21029;-56
2022/07/22 06:21:01;;;;;;;6.15;3.87;;;;;;;30.15;90.58;99368.60;1684198;85;20917;-56
2022/07/22 06:23:30;;;;;;;5.00;3.15;;;;;;;31.39;73.96;99366.77;1684912;85;21849;-56
2022/07/22 06:25:57;;;;;;;4.85;3.05;;;;;;;32.44;61.92;99369.04;1685360;83;21085;-63
2022/07/22 06:28:26;;;;;;;4.25;3.37;;;;;;;33.34;53.78;99370.36;1684928;85;20973;-56
2022/07/22 06:30:54;;;;;;;4.83;3.67;;;;;;;33.94;48.49;99363.88;1684410;85;21039;-57
2022/07/22 06:33:22;;;;;;;5.08;3.75;;;;;;;34.40;46.75;99363.87;1685551;85;21593;-55
2022/07/22 06:35:50;;;;;;;5.35;4.17;;;;;;;34.84;44.89;99366.79;1685362;85;21139;-56
2022/07/22 06:38:19;;;;;;;5.45;4.00;;;;;;;35.28;42.75;99364.83;1684640;85;20949;-57
2022/07/22 06:40:48;;;;;;;4.40;3.25;;;;;;;35.68;40.53;99367.94;1683835;85;21107;-56
2022/07/22 06:43:28;;;;;;;4.37;3.98;;;;;;;35.92;39.29;99363.33;1684997;85;21096;-56
2022/07/22 06:46:09;;;;;;;4.72;3.95;;;;;;;36.22;37.64;99366.48;1684064;85;21156;-57
2022/07/22 06:48:38;;;;;;;3.87;3.33;;;;;;;36.30;37.04;99370.80;1685365;85;21071;-56
2022/07/22 06:51:07;;;;;;;4.15;3.50;;;;;;;36.40;36.03;99365.22;1685548;85;21644;-57
2022/07/22 06:53:36;;;;;;;3.42;3.12;;;;;;;36.25;35.77;99372.48;1685766;83;21494;-57
2022/07/22 06:56:05;;;;;;;3.80;3.22;;;;;;;35.87;35.40;99377.20;1684316;85;21056;-62
2022/07/22 06:58:33;;;;;;;4.62;2.83;;;;;;;35.61;35.51;99375.42;1685637;85;21410;-57
2022/07/22 07:01:01;;;;;;;3.70;3.27;;;;;;;35.54;35.38;99369.37;1685845;85;21416;-56
2022/07/22 07:03:30;;;;;;;4.10;3.07;;;;;;;35.56;35.92;99366.28;1685262;85;20894;-58
2022/07/22 07:06:00;;;;;;;4.00;3.20;;;;;;;35.82;35.73;99366.72;1684487;85;21208;-58
2022/07/22 07:08:29;;;;;;;5.70;2.58;;;;;;;35.95;35.57;99365.29;1679872;85;21084;-56
2022/07/22 07:10:56;;;;;;;3.10;2.80;;;;;;;36.25;34.58;99361.63;1674980;84;22166;-56
2022/07/22 07:13:23;;;;;;;4.17;3.17;;;;;;;36.21;33.70;99368.97;1674897;85;21618;-55
2022/07/22 07:15:50;;;;;;;5.67;3.05;;;;;;;35.86;33.91;99364.81;1675332;85;21014;-63
2022/07/22 07:18:19;;;;;;;3.90;2.77;;;;;;;35.27;33.75;99367.89;1674607;85;21064;-60
2022/07/22 07:20:48;;;;;;;4.08;2.90;;;;;;;34.73;34.76;99372.64;1675103;85;21080;-57
2022/07/22 07:23:16;;;;;;;4.75;2.77;;;;;;;34.75;35.55;99371.71;1675121;84;21286;-56
2022/07/22 07:25:47;;;;;;;4.05;3.00;;;;;;;34.76;34.89;99361.66;1675227;85;21590;-56
2022/07/22 07:28:14;;;;;;;3.70;2.77;;;;;;;34.56;35.43;99363.15;1674538;85;21009;-56
2022/07/22 07:30:52;;;;;;;5.65;2.65;;;;;;;34.40;36.63;99365.22;1674494;85;21139;-56
2022/07/22 07:33:21;;;;;;;5.67;3.08;;;;;;;34.68;35.64;99360.02;1675038;85;21089;-56
2022/07/22 07:35:49;;;;;;;3.62;2.65;;;;;;;34.88;34.77;99361.42;1674587;84;22370;-61
2022/07/22 07:38:18;;;;;;;5.60;2.30;;;;;;;35.03;34.96;99357.77;1674739;84;21377;-63
2022/07/22 07:40:46;;;;;;;4.87;2.55;;;;;;;35.12;33.89;99344.50;1674344;84;21116;-57
2022/07/22 07:43:13;;;;;;;2.50;2.08;;;;;;;35.21;34.32;99349.06;1674602;85;21357;-56
2022/07/22 07:45:41;;;;;;;3.10;2.35;;;;;;;35.42;33.27;99349.30;1674813;85;21176;-56
2022/07/22 07:48:09;;;;;;;3.25;2.12;;;;;;;35.61;33.15;99352.96;1674666;85;21325;-56
2022/07/22 07:50:37;;;;;;;3.45;2.08;;;;;;;35.85;32.25;99351.05;1680430;84;21029;-63
2022/07/22 07:53:06;;;;;;;3.35;2.30;;;;;;;35.80;31.53;99356.25;1674778;85;21021;-56
2022/07/22 07:55:37;;;;;;;2.95;1.85;;;;;;;35.71;31.47;99364.48;1675242;85;21128;-63
2022/07/22 07:58:03;;;;;;;2.90;1.77;;;;;;;35.62;32.03;99355.89;1675403;85;22851;-58
2022/07/22 08:00:33;;;;;;;3.30;2.30;;;;;;;35.72;31.97;99359.26;1675202;85;21292;-56
2022/07/22 08:03:01;;;;;;;3.40;2.52;;;;;;;35.88;31.62;99365.78;1675209;85;21497;-56
2022/07/22 08:05:31;;;;;;;2.62;2.12;;;;;;;35.80;31.99;99364.94;1675470;85;20994;-64
2022/07/22 08:08:02;;;;;;;2.12;1.65;;;;;;;35.99;32.29;99364.77;1674950;85;21001;-56
2022/07/22 08:10:30;;;;;;;3.70;1.70;;;;;;;36.10;31.39;99359.39;1675711;84;20989;-57
2022/07/22 08:13:15;;;;;;;2.65;1.77;;;;;;;36.03;31.64;99362.08;1674991;84;21363;-64
2022/07/22 08:15:51;;;;;;;2.70;1.80;;;;;;;35.96;31.57;99360.06;1667614;85;21040;-57
2022/07/22 08:18:21;;;;;;;3.65;1.90;;;;;;;35.93;31.89;99356.73;1675210;85;21152;-62
2022/07/22 08:20:48;;;;;;;3.72;1.62;;;;;;;36.10;32.56;99365.41;1674564;85;21002;-57
2022/07/22 08:23:18;;;;;;;2.47;1.72;;;;;;;36.31;31.47;99368.27;1674562;85;21324;-58
2022/07/22 08:25:47;;;;;;;4.37;1.98;;;;;;;36.48;31.46;99370.36;1675284;85;22384;-56
2022/07/22 08:28:15;;;;;;;3.95;1.87;;;;;;;36.49;31.21;99369.19;1674755;84;21097;-63
2022/07/22 08:30:43;;;;;;;2.40;1.90;;;;;;;36.44;30.98;99372.80;1674929;84;21065;-56
2022/07/22 08:33:11;;;;;;;2.83;1.92;;;;;;;36.32;31.16;99367.69;1679953;85;21888;-58
2022/07/22 08:35:39;;;;;;;3.08;1.62;;;;;;;36.25;31.26;99367.06;1674810;85;21135;-56
2022/07/22 08:38:06;;;;;;;3.65;1.92;;;;;;;36.40;31.61;99369.29;1675220;84;21171;-56
2022/07/22 08:40:34;;;;;;;4.40;2.22;;;;;;;36.52;31.53;99375.23;1674267;85;21776;-58
2022/07/22 08:43:03;;;;;;;4.00;1.87;;;;;;;36.49;31.07;99362.41;1674864;85;21680;-56
2022/07/22 08:45:31;;;;;;;3.37;2.10;;;;;;;36.18;31.23;99361.58;1674549;84;20977;-57
2022/07/22 08:48:05;;;;;;;2.30;1.45;;;;;;;36.24;31.17;99354.66;1675538;85;21510;-56
2022/07/22 08:50:42;;;;;;;4.03;1.60;;;;;;;36.38;30.51;99354.75;1673798;84;21564;-58
2022/07/22 08:53:12;;;;;;;2.47;1.77;;;;;;;36.51;30.67;99345.73;1674479;85;21064;-57
2022/07/22 08:55:44;;;;;;;2.90;1.45;;;;;;;36.37;30.76;99346.42;1674810;85;21362;-58
2022/07/22 08:58:11;;;;;;;2.72;1.47;;;;;;;36.00;30.35;99351.40;1674962;85;22436;-58
2022/07/22 09:00:39;;;;;;;2.70;1.57;;;;;;;35.10;31.08;99349.72;1674925;85;21140;-57
2022/07/22 09:03:25;;;;;;;3.37;1.98;;;;;;;34.25;33.01;99360.75;1675357;84;21171;-62
2022/07/22 09:05:54;;;;;;;3.33;2.05;;;;;;;33.20;37.44;99361.97;1670298;85;21092;-57
2022/07/22 09:08:21;;;;;;;4.75;2.33;;;;;;;31.21;44.16;99379.70;1678564;84;21041;-57
2022/07/22 09:10:51;;;;;;;3.90;2.95;;;;;;;29.44;60.23;99389.81;1680303;85;21092;-59
2022/07/22 09:13:22;;;;;;;5.53;3.08;;;;;;;27.96;83.85;99391.16;1680371;83;21477;-58
2022/07/22 09:15:55;;;;;;;4.10;3.00;;;;;;;26.82;100.00;99385.05;1655791;85;21840;-57
2022/07/22 09:18:48;;;;;;;4.33;3.12;;;;;;;26.02;100.00;99390.94;1679089;85;21064;-60
2022/07/22 09:21:24;;;;;;;4.75;3.12;;;;;;;25.50;100.00;99387.94;1680066;85;21055;-57
2022/07/22 09:24:32;;;;;;;3.95;2.95;;;;;;;25.18;100.00;99387.04;1653498;86;21019;-61
2022/07/22 09:27:01;;;;;;;3.30;2.58;;;;;;;25.06;100.00;99386.75;1652822;86;21028;-57
2022/07/22 09:29:30;;;;;;;4.13;2.50;;;;;;;25.09;100.00;99389.38;1667253;84;21283;-57
2022/07/22 09:32:09;;;;;;;3.63;2.77;;;;;;;25.42;100.00;99389.97;1670839;85;21455;-57
2022/07/22 09:34:47;;;;;;;3.67;2.47;;;;;;;25.95;100.00;99378.05;1654031;86;21110;-57
2022/07/22 09:37:20;;;;;;;5.08;2.40;;;;;;;26.49;100.00;99381.98;1680016;85;22056;-55
2022/07/22 09:39:48;;;;;;;3.55;2.60;;;;;;;26.87;100.00;99381.44;1679399;85;21498;-56
2022/07/22 09:42:18;;;;;;;3.55;2.12;;;;;;;27.05;100.00;99383.56;1680464;85;21241;-55
2022/07/22 09:44:47;;;;;;;3.52;2.30;;;;;;;27.07;100.00;99381.38;1680179;85;21096;-65
2022/07/22 09:47:29;;;;;;;5.00;2.35;;;;;;;26.93;100.00;99384.18;1676791;85;21109;-55
2022/07/22 09:50:20;;;;;;;5.40;2.55;;;;;;;26.92;100.00;99390.08;1677286;85;21334;-57
2022/07/22 09:52:57;;;;;;;2.92;2.00;;;;;;;26.98;100.00;99390.73;1678375;83;21555;-65
2022/07/22 09:55:27;;;;;;;3.02;2.33;;;;;;;26.95;87.72;99395.92;1680013;85;21141;-56
2022/07/22 09:57:56;;;;;;;2.35;1.70;;;;;;;26.85;87.50;99392.42;1679877;85;21041;-57
2022/07/22 10:00:27;;;;;;;2.83;2.00;;;;;;;26.81;84.85;99396.05;1680425;85;21087;-57
2022/07/22 10:03:00;;;;;;;4.67;3.08;;;;;;;26.83;87.78;99391.97;1680252;85;21389;-56
2022/07/22 10:05:32;;;;;;;5.20;3.60;;;;;;;26.99;92.14;99396.87;1680881;85;21661;-56
2022/07/22 10:08:01;;;;;;;6.30;3.20;;;;;;;27.14;85.79;99397.22;1683349;85;21194;-65
2022/07/22 10:10:32;;;;;;;4.87;2.83;;;;;;;27.25;86.10;99395.02;1684943;85;21037;-56
2022/07/22 10:13:00;;;;;;;3.77;2.08;;;;;;;27.39;83.87;99397.00;1685696;85;21818;-56
2022/07/22 10:15:29;;;;;;;5.35;2.55;;;;;;;27.57;82.04;99396.97;1685528;85;20996;-56
2022/07/22 10:18:03;;;;;;;5.00;2.30;;;;;;;27.69;78.34;99403.80;1686054;83;21083;-56
2022/07/22 10:20:31;;;;;;;3.30;2.25;;;;;;;27.83;75.54;99397.73;1685209;83;21250;-56
2022/07/22 10:23:05;;;;;;;4.33;2.47;;;;;;;28.00;69.86;99395.58;1685668;85;21075;-58
2022/07/22 10:25:56;;;;;;;3.00;2.37;;;;;;;28.12;67.87;99393.57;1686052;85;21018;-56
2022/07/22 10:28:30;;;;;;;2.42;1.87;;;;;;;28.16;68.70;99397.18;1685650;85;21120;-57
2022/07/22 10:31:22;;;;;;;5.75;2.17;;;;;;;28.28;64.62;99398.63;1685492;85;21070;-56
2022/07/22 10:33:56;;;;;;;4.42;2.55;;;;;;;28.41;63.87;99396.84;1670256;85;21877;-56
2022/07/22 10:36:37;;;;;;;2.60;2.20;;;;;;;28.61;63.96;99395.35;1685210;85;21076;-56
2022/07/22 10:39:10;;;;;;;6.08;2.90;;;;;;;28.92;61.16;99390.97;1685590;85;21088;-65
2022/07/22 10:41:43;;;;;;;5.33;3.37;;;;;;;29.17;55.75;99393.27;1685967;85;21716;-56
2022/07/22 10:44:12;;;;;;;5.65;3.10;;;;;;;29.12;54.00;99391.33;1685730;85;21452;-55
2022/07/22 10:46:58;;;;;;;8.98;3.87;;;;;;;28.94;54.53;99400.02;1685703;85;21168;-59
2022/07/22 10:49:25;;;;;;;6.05;3.92;;;;;;;28.67;78.90;99422.75;1685863;85;21530;-59
2022/07/22 10:52:16;;;;;;;4.75;2.60;;;;;;;27.78;100.00;99425.25;1685949;85;21515;-58
2022/07/22 10:55:21;;;;;;;5.30;2.80;;;;;;;26.32;100.00;99429.97;1684400;85;21597;-57
2022/07/22 10:57:49;;;;;;;4.22;3.02;;;;;;;25.03;100.00;99433.23;1659192;85;21040;-60
2022/07/22 11:00:18;;;;;;;4.27;2.33;;;;;;;24.34;100.00;99431.33;1658216;86;21365;-59
2022/07/22 11:02:46;;;;;;;5.13;2.63;;;;;;;24.25;100.00;99435.22;1671990;85;21377;-58
2022/07/22 11:05:14;;;;;;;4.73;2.50;;;;;;;24.29;100.00;99438.09;1684708;85;21040;-58
2022/07/22 11:07:46;;;;;;;3.90;2.53;;;;;;;24.53;100.00;99430.49;1684677;85;21080;-64
2022/07/22 11:10:16;;;;;;;3.23;2.20;;;;;;;24.89;100.00;99427.38;1684774;85;21437;-65
2022/07/22 11:12:43;;;;;;;2.47;1.87;;;;;;;25.38;100.00;99434.35;1684902;85;21130;-58
2022/07/22 11:15:13;;;;;;;3.33;2.03;;;;;;;25.89;100.00;99425.20;1685128;85;21136;-59
2022/07/22 11:17:41;;;;;;;4.17;2.23;;;;;;;26.13;100.00;99428.30;1684375;83;21557;-59
2022/07/22 11:20:10;;;;;;;3.27;2.00;;;;;;;26.21;100.00;99430.78;1685312;85;21872;-58
2022/07/22 11:22:37;;;;;;;3.98;2.30;;;;;;;26.18;100.00;99431.41;1684993;85;21147;-58
2022/07/22 11:25:08;;;;;;;4.22;2.20;;;;;;;26.05;100.00;99429.60;1685081;85;21275;-60
2022/07/22 11:27:35;;;;;;;4.33;3.10;;;;;;;25.91;100.00;99431.81;1684993;85;21515;-61
2022/07/22 11:30:06;;;;;;;6.23;2.97;;;;;;;25.84;100.00;99429.34;1684812;85;21152;-61
2022/07/22 11:32:32;;;;;;;8.93;4.90;;;;;;;25.66;100.00;99431.84;1684936;85;21096;-58
2022/07/22 11:35:01;;;;;;;7.57;5.00;;;;;;;25.62;100.00;99432.76;1684626;85;21095;-57
2022/07/22 11:37:29;;;;;;;7.23;4.20;;;;;;;25.75;100.00;99431.11;1684787;85;21144;-64